sensor_id;sensor_type;location;lat;lon;timestamp;P1;durP1;ratioP1;P2;durP2;ratioP2
10605;SDS011;5350;42.698;23.148;2022-07-06T00:01:45;9.50;;;8.55;;
10605;SDS011;5350;42.698;23.148;2022-07-06T00:04:12;11.85;;;9.25;;
10605;SDS011;5350;42.698;23.148;2022-07-06T00:06:39;9.73;;;8.82;;
10605;SDS011;5350;42.698;23.148;2022-07-06T00:09:07;12.23;;;9.45;;
10605;SDS011;5350;42.698;23.148;2022-07-06T00:11:34;9.63;;;8.55;;
10605;SDS011;5350;42.698;23.148;2022-07-06T00:14:01;9.63;;;8.68;;
10605;SDS011;5350;42.698;23.148;2022-07-06T00:16:27;10.73;;;8.88;;
10605;SDS011;5350;42.698;23.148;2022-07-06T00:18:54;10.25;;;8.40;;
10605;SDS011;5350;42.698;23.148;2022-07-06T00:21:21;9.43;;;8.45;;
10605;SDS011;5350;42.698;23.148;2022-07-06T00:23:48;9.32;;;8.52;;
10605;SDS011;5350;42.698;23.148;2022-07-06T00:26:18;9.18;;;8.35;;
10605;SDS011;5350;42.698;23.148;2022-07-06T00:28:45;9.70;;;8.80;;
10605;SDS011;5350;42.698;23.148;2022-07-06T00:31:11;9.18;;;8.38;;
10605;SDS011;5350;42.698;23.148;2022-07-06T00:33:38;9.38;;;8.48;;
10605;SDS011;5350;42.698;23.148;2022-07-06T00:36:05;8.50;;;7.57;;
10605;SDS011;5350;42.698;23.148;2022-07-06T00:38:32;8.20;;;7.55;;
10605;SDS011;5350;42.698;23.148;2022-07-06T00:40:58;8.82;;;7.93;;
10605;SDS011;5350;42.698;23.148;2022-07-06T00:43:26;9.48;;;8.68;;
10605;SDS011;5350;42.698;23.148;2022-07-06T00:45:53;11.55;;;8.07;;
10605;SDS011;5350;42.698;23.148;2022-07-06T00:48:20;8.75;;;7.95;;
10605;SDS011;5350;42.698;23.148;2022-07-06T00:50:47;10.88;;;7.80;;
10605;SDS011;5350;42.698;23.148;2022-07-06T00:53:13;10.35;;;8.27;;
10605;SDS011;5350;42.698;23.148;2022-07-06T00:55:40;9.35;;;8.45;;
10605;SDS011;5350;42.698;23.148;2022-07-06T00:58:08;8.27;;;7.57;;
10605;SDS011;5350;42.698;23.148;2022-07-06T01:00:36;8.52;;;7.72;;
10605;SDS011;5350;42.698;23.148;2022-07-06T01:03:03;9.57;;;8.68;;
10605;SDS011;5350;42.698;23.148;2022-07-06T01:05:30;10.82;;;8.13;;
10605;SDS011;5350;42.698;23.148;2022-07-06T01:07:57;8.63;;;7.88;;
10605;SDS011;5350;42.698;23.148;2022-07-06T01:10:23;9.48;;;8.57;;
10605;SDS011;5350;42.698;23.148;2022-07-06T01:12:51;9.70;;;8.90;;
10605;SDS011;5350;42.698;23.148;2022-07-06T01:15:18;12.73;;;9.00;;
10605;SDS011;5350;42.698;23.148;2022-07-06T01:17:48;10.38;;;9.05;;
10605;SDS011;5350;42.698;23.148;2022-07-06T01:20:16;9.95;;;8.95;;
10605;SDS011;5350;42.698;23.148;2022-07-06T01:22:44;9.93;;;8.93;;
10605;SDS011;5350;42.698;23.148;2022-07-06T01:25:12;9.57;;;8.65;;
10605;SDS011;5350;42.698;23.148;2022-07-06T01:27:40;10.18;;;9.18;;
10605;SDS011;5350;42.698;23.148;2022-07-06T01:30:08;9.50;;;8.50;;
10605;SDS011;5350;42.698;23.148;2022-07-06T01:32:36;9.70;;;8.80;;
10605;SDS011;5350;42.698;23.148;2022-07-06T01:35:04;10.75;;;8.45;;
10605;SDS011;5350;42.698;23.148;2022-07-06T01:37:34;8.82;;;7.80;;
10605;SDS011;5350;42.698;23.148;2022-07-06T01:40:01;9.07;;;8.27;;
10605;SDS011;5350;42.698;23.148;2022-07-06T01:42:29;9.77;;;8.13;;
10605;SDS011;5350;42.698;23.148;2022-07-06T01:44:56;9.50;;;8.60;;
10605;SDS011;5350;42.698;23.148;2022-07-06T01:47:23;9.95;;;7.97;;
10605;SDS011;5350;42.698;23.148;2022-07-06T01:49:50;8.75;;;7.80;;
10605;SDS011;5350;42.698;23.148;2022-07-06T01:52:17;9.57;;;8.68;;
10605;SDS011;5350;42.698;23.148;2022-07-06T01:54:45;11.85;;;8.70;;
10605;SDS011;5350;42.698;23.148;2022-07-06T01:57:12;9.63;;;8.63;;
10605;SDS011;5350;42.698;23.148;2022-07-06T01:59:39;10.13;;;9.20;;
10605;SDS011;5350;42.698;23.148;2022-07-06T02:02:05;10.85;;;9.02;;
10605;SDS011;5350;42.698;23.148;2022-07-06T02:04:32;10.73;;;9.02;;
10605;SDS011;5350;42.698;23.148;2022-07-06T02:06:59;9.50;;;8.70;;
10605;SDS011;5350;42.698;23.148;2022-07-06T02:09:26;10.02;;;9.20;;
10605;SDS011;5350;42.698;23.148;2022-07-06T02:11:54;9.93;;;8.98;;
10605;SDS011;5350;42.698;23.148;2022-07-06T02:14:21;11.02;;;9.95;;
10605;SDS011;5350;42.698;23.148;2022-07-06T02:16:48;10.50;;;9.40;;
10605;SDS011;5350;42.698;23.148;2022-07-06T02:19:14;10.02;;;9.07;;
10605;SDS011;5350;42.698;23.148;2022-07-06T02:21:41;10.32;;;8.88;;
10605;SDS011;5350;42.698;23.148;2022-07-06T02:24:08;9.73;;;8.73;;
10605;SDS011;5350;42.698;23.148;2022-07-06T02:26:34;10.50;;;9.40;;
10605;SDS011;5350;42.698;23.148;2022-07-06T02:29:02;9.68;;;8.70;;
10605;SDS011;5350;42.698;23.148;2022-07-06T02:31:29;10.98;;;8.48;;
10605;SDS011;5350;42.698;23.148;2022-07-06T02:33:56;11.95;;;9.13;;
10605;SDS011;5350;42.698;23.148;2022-07-06T02:36:22;10.57;;;9.52;;
10605;SDS011;5350;42.698;23.148;2022-07-06T02:38:49;11.25;;;9.25;;
10605;SDS011;5350;42.698;23.148;2022-07-06T02:41:16;11.25;;;9.52;;
10605;SDS011;5350;42.698;23.148;2022-07-06T02:43:42;10.18;;;9.20;;
10605;SDS011;5350;42.698;23.148;2022-07-06T02:46:11;9.50;;;8.55;;
10605;SDS011;5350;42.698;23.148;2022-07-06T02:48:38;8.95;;;7.82;;
10605;SDS011;5350;42.698;23.148;2022-07-06T02:51:05;10.65;;;7.78;;
10605;SDS011;5350;42.698;23.148;2022-07-06T02:53:31;8.63;;;7.80;;
10605;SDS011;5350;42.698;23.148;2022-07-06T02:55:58;9.20;;;7.68;;
10605;SDS011;5350;42.698;23.148;2022-07-06T02:58:25;10.23;;;7.75;;
10605;SDS011;5350;42.698;23.148;2022-07-06T03:00:51;11.48;;;8.23;;
10605;SDS011;5350;42.698;23.148;2022-07-06T03:03:19;8.18;;;7.35;;
10605;SDS011;5350;42.698;23.148;2022-07-06T03:05:46;9.20;;;7.28;;
10605;SDS011;5350;42.698;23.148;2022-07-06T03:08:13;7.78;;;7.00;;
10605;SDS011;5350;42.698;23.148;2022-07-06T03:10:41;7.03;;;6.32;;
10605;SDS011;5350;42.698;23.148;2022-07-06T03:13:08;13.07;;;7.22;;
10605;SDS011;5350;42.698;23.148;2022-07-06T03:15:34;7.75;;;6.78;;
10605;SDS011;5350;42.698;23.148;2022-07-06T03:18:01;7.65;;;6.57;;
10605;SDS011;5350;42.698;23.148;2022-07-06T03:20:29;7.47;;;6.68;;
10605;SDS011;5350;42.698;23.148;2022-07-06T03:22:56;7.90;;;6.85;;
10605;SDS011;5350;42.698;23.148;2022-07-06T03:25:23;7.10;;;6.40;;
10605;SDS011;5350;42.698;23.148;2022-07-06T03:27:49;8.02;;;6.88;;
10605;SDS011;5350;42.698;23.148;2022-07-06T03:30:16;11.05;;;6.95;;
10605;SDS011;5350;42.698;23.148;2022-07-06T03:32:43;8.65;;;6.18;;
10605;SDS011;5350;42.698;23.148;2022-07-06T03:35:09;8.65;;;6.53;;
10605;SDS011;5350;42.698;23.148;2022-07-06T03:37:37;7.10;;;6.22;;
10605;SDS011;5350;42.698;23.148;2022-07-06T03:40:05;7.97;;;6.60;;
10605;SDS011;5350;42.698;23.148;2022-07-06T03:42:32;7.00;;;6.40;;
10605;SDS011;5350;42.698;23.148;2022-07-06T03:44:59;6.57;;;5.88;;
10605;SDS011;5350;42.698;23.148;2022-07-06T03:47:26;7.13;;;6.53;;
10605;SDS011;5350;42.698;23.148;2022-07-06T03:49:52;6.85;;;6.18;;
10605;SDS011;5350;42.698;23.148;2022-07-06T03:52:19;7.00;;;6.30;;
10605;SDS011;5350;42.698;23.148;2022-07-06T03:54:47;7.43;;;6.55;;
10605;SDS011;5350;42.698;23.148;2022-07-06T03:57:14;8.45;;;6.47;;
10605;SDS011;5350;42.698;23.148;2022-07-06T03:59:41;8.13;;;5.82;;
10605;SDS011;5350;42.698;23.148;2022-07-06T04:02:08;8.35;;;6.00;;
10605;SDS011;5350;42.698;23.148;2022-07-06T04:04:35;6.53;;;5.80;;
10605;SDS011;5350;42.698;23.148;2022-07-06T04:07:02;6.47;;;5.63;;
10605;SDS011;5350;42.698;23.148;2022-07-06T04:09:29;8.52;;;5.70;;
10605;SDS011;5350;42.698;23.148;2022-07-06T04:11:57;6.65;;;5.53;;
10605;SDS011;5350;42.698;23.148;2022-07-06T04:14:23;8.90;;;6.10;;
10605;SDS011;5350;42.698;23.148;2022-07-06T04:16:52;6.53;;;5.60;;
10605;SDS011;5350;42.698;23.148;2022-07-06T04:19:19;6.65;;;5.88;;
10605;SDS011;5350;42.698;23.148;2022-07-06T04:21:45;5.10;;;4.60;;
10605;SDS011;5350;42.698;23.148;2022-07-06T04:24:12;7.00;;;5.47;;
10605;SDS011;5350;42.698;23.148;2022-07-06T04:26:39;6.65;;;5.45;;
10605;SDS011;5350;42.698;23.148;2022-07-06T04:29:07;6.82;;;5.63;;
10605;SDS011;5350;42.698;23.148;2022-07-06T04:31:33;6.13;;;5.50;;
10605;SDS011;5350;42.698;23.148;2022-07-06T04:34:00;6.50;;;4.97;;
10605;SDS011;5350;42.698;23.148;2022-07-06T04:36:27;8.32;;;5.65;;
10605;SDS011;5350;42.698;23.148;2022-07-06T04:38:53;7.40;;;6.65;;
10605;SDS011;5350;42.698;23.148;2022-07-06T04:41:20;9.75;;;6.82;;
10605;SDS011;5350;42.698;23.148;2022-07-06T04:43:47;10.35;;;6.65;;
10605;SDS011;5350;42.698;23.148;2022-07-06T04:46:15;8.50;;;7.55;;
10605;SDS011;5350;42.698;23.148;2022-07-06T04:48:42;9.48;;;8.48;;
10605;SDS011;5350;42.698;23.148;2022-07-06T04:51:08;9.32;;;8.38;;
10605;SDS011;5350;42.698;23.148;2022-07-06T04:53:35;11.38;;;10.07;;
10605;SDS011;5350;42.698;23.148;2022-07-06T04:56:03;9.98;;;8.20;;
10605;SDS011;5350;42.698;23.148;2022-07-06T04:58:30;11.38;;;10.18;;
10605;SDS011;5350;42.698;23.148;2022-07-06T05:00:56;12.82;;;9.98;;
10605;SDS011;5350;42.698;23.148;2022-07-06T05:03:24;11.18;;;9.65;;
10605;SDS011;5350;42.698;23.148;2022-07-06T05:05:51;13.00;;;9.95;;
10605;SDS011;5350;42.698;23.148;2022-07-06T05:08:18;11.73;;;9.20;;
10605;SDS011;5350;42.698;23.148;2022-07-06T05:10:45;11.20;;;9.35;;
10605;SDS011;5350;42.698;23.148;2022-07-06T05:13:11;12.02;;;9.45;;
10605;SDS011;5350;42.698;23.148;2022-07-06T05:15:38;11.73;;;9.70;;
10605;SDS011;5350;42.698;23.148;2022-07-06T05:18:05;10.10;;;9.10;;
10605;SDS011;5350;42.698;23.148;2022-07-06T05:20:33;10.50;;;9.48;;
10605;SDS011;5350;42.698;23.148;2022-07-06T05:23:00;11.68;;;9.63;;
10605;SDS011;5350;42.698;23.148;2022-07-06T05:25:26;11.88;;;9.70;;
10605;SDS011;5350;42.698;23.148;2022-07-06T05:27:53;10.68;;;9.57;;
10605;SDS011;5350;42.698;23.148;2022-07-06T05:30:20;9.68;;;8.70;;
10605;SDS011;5350;42.698;23.148;2022-07-06T05:32:47;10.25;;;8.85;;
10605;SDS011;5350;42.698;23.148;2022-07-06T05:35:13;10.13;;;9.00;;
10605;SDS011;5350;42.698;23.148;2022-07-06T05:37:42;10.48;;;9.35;;
10605;SDS011;5350;42.698;23.148;2022-07-06T05:40:10;9.52;;;8.55;;
10605;SDS011;5350;42.698;23.148;2022-07-06T05:42:37;9.38;;;8.43;;
10605;SDS011;5350;42.698;23.148;2022-07-06T05:45:04;8.85;;;7.60;;
10605;SDS011;5350;42.698;23.148;2022-07-06T05:47:31;8.70;;;7.80;;
10605;SDS011;5350;42.698;23.148;2022-07-06T05:50:16;8.00;;;7.03;;
10605;SDS011;5350;42.698;23.148;2022-07-06T05:52:45;7.63;;;6.82;;
10605;SDS011;5350;42.698;23.148;2022-07-06T05:55:22;7.72;;;6.93;;
10605;SDS011;5350;42.698;23.148;2022-07-06T05:57:49;8.40;;;7.55;;
10605;SDS011;5350;42.698;23.148;2022-07-06T06:00:18;9.57;;;7.35;;
10605;SDS011;5350;42.698;23.148;2022-07-06T06:02:45;9.07;;;7.82;;
10605;SDS011;5350;42.698;23.148;2022-07-06T06:05:13;8.23;;;7.53;;
10605;SDS011;5350;42.698;23.148;2022-07-06T06:07:40;9.52;;;7.45;;
10605;SDS011;5350;42.698;23.148;2022-07-06T06:10:09;9.23;;;8.07;;
10605;SDS011;5350;42.698;23.148;2022-07-06T06:12:38;9.27;;;8.07;;
10605;SDS011;5350;42.698;23.148;2022-07-06T06:15:06;9.77;;;8.80;;
10605;SDS011;5350;42.698;23.148;2022-07-06T06:17:35;11.93;;;8.20;;
10605;SDS011;5350;42.698;23.148;2022-07-06T06:20:02;8.18;;;7.38;;
10605;SDS011;5350;42.698;23.148;2022-07-06T06:22:29;9.55;;;8.65;;
10605;SDS011;5350;42.698;23.148;2022-07-06T06:24:56;10.32;;;9.38;;
10605;SDS011;5350;42.698;23.148;2022-07-06T06:27:24;10.52;;;9.48;;
10605;SDS011;5350;42.698;23.148;2022-07-06T06:29:51;11.45;;;10.05;;
10605;SDS011;5350;42.698;23.148;2022-07-06T06:32:17;10.77;;;9.77;;
10605;SDS011;5350;42.698;23.148;2022-07-06T06:34:44;12.10;;;9.93;;
10605;SDS011;5350;42.698;23.148;2022-07-06T06:37:11;10.48;;;9.38;;
10605;SDS011;5350;42.698;23.148;2022-07-06T06:39:37;12.40;;;9.75;;
10605;SDS011;5350;42.698;23.148;2022-07-06T06:42:04;18.95;;;9.65;;
10605;SDS011;5350;42.698;23.148;2022-07-06T06:44:33;11.40;;;9.73;;
10605;SDS011;5350;42.698;23.148;2022-07-06T06:46:59;12.15;;;9.93;;
10605;SDS011;5350;42.698;23.148;2022-07-06T06:49:26;11.10;;;10.02;;
10605;SDS011;5350;42.698;23.148;2022-07-06T06:51:53;11.35;;;10.25;;
10605;SDS011;5350;42.698;23.148;2022-07-06T06:54:20;11.02;;;9.50;;
10605;SDS011;5350;42.698;23.148;2022-07-06T06:56:46;10.48;;;9.43;;
10605;SDS011;5350;42.698;23.148;2022-07-06T06:59:13;12.50;;;10.95;;
10605;SDS011;5350;42.698;23.148;2022-07-06T07:01:41;11.02;;;9.93;;
10605;SDS011;5350;42.698;23.148;2022-07-06T07:04:08;11.02;;;9.95;;
10605;SDS011;5350;42.698;23.148;2022-07-06T07:06:35;13.30;;;10.55;;
10605;SDS011;5350;42.698;23.148;2022-07-06T07:09:01;15.23;;;10.88;;
10605;SDS011;5350;42.698;23.148;2022-07-06T07:11:28;11.35;;;10.30;;
10605;SDS011;5350;42.698;23.148;2022-07-06T07:13:55;11.60;;;10.27;;
10605;SDS011;5350;42.698;23.148;2022-07-06T07:16:22;10.68;;;9.77;;
10605;SDS011;5350;42.698;23.148;2022-07-06T07:18:51;11.50;;;10.55;;
10605;SDS011;5350;42.698;23.148;2022-07-06T07:21:17;12.35;;;11.15;;
10605;SDS011;5350;42.698;23.148;2022-07-06T07:23:44;12.52;;;11.40;;
10605;SDS011;5350;42.698;23.148;2022-07-06T07:26:11;12.57;;;11.48;;
10605;SDS011;5350;42.698;23.148;2022-07-06T07:28:38;13.20;;;11.65;;
10605;SDS011;5350;42.698;23.148;2022-07-06T07:31:04;13.10;;;11.88;;
10605;SDS011;5350;42.698;23.148;2022-07-06T07:33:31;12.60;;;11.48;;
10605;SDS011;5350;42.698;23.148;2022-07-06T07:35:59;12.50;;;11.40;;
10605;SDS011;5350;42.698;23.148;2022-07-06T07:38:26;12.85;;;11.60;;
10605;SDS011;5350;42.698;23.148;2022-07-06T07:40:53;12.73;;;11.43;;
10605;SDS011;5350;42.698;23.148;2022-07-06T07:43:20;11.55;;;10.40;;
10605;SDS011;5350;42.698;23.148;2022-07-06T07:45:47;11.43;;;10.43;;
10605;SDS011;5350;42.698;23.148;2022-07-06T07:48:14;10.88;;;9.77;;
10605;SDS011;5350;42.698;23.148;2022-07-06T07:50:41;11.55;;;10.45;;
10605;SDS011;5350;42.698;23.148;2022-07-06T07:53:10;12.73;;;11.52;;
10605;SDS011;5350;42.698;23.148;2022-07-06T07:55:36;12.60;;;11.35;;
10605;SDS011;5350;42.698;23.148;2022-07-06T07:58:03;12.07;;;10.40;;
10605;SDS011;5350;42.698;23.148;2022-07-06T08:00:30;13.80;;;11.55;;
10605;SDS011;5350;42.698;23.148;2022-07-06T08:02:57;12.13;;;10.90;;
10605;SDS011;5350;42.698;23.148;2022-07-06T08:05:23;12.75;;;11.38;;
10605;SDS011;5350;42.698;23.148;2022-07-06T08:07:50;13.27;;;11.98;;
10605;SDS011;5350;42.698;23.148;2022-07-06T08:10:19;13.60;;;11.93;;
10605;SDS011;5350;42.698;23.148;2022-07-06T08:12:45;14.23;;;12.65;;
10605;SDS011;5350;42.698;23.148;2022-07-06T08:15:12;11.98;;;10.93;;
10605;SDS011;5350;42.698;23.148;2022-07-06T08:17:39;11.88;;;10.82;;
10605;SDS011;5350;42.698;23.148;2022-07-06T08:20:06;11.95;;;10.75;;
10605;SDS011;5350;42.698;23.148;2022-07-06T08:22:34;12.40;;;11.20;;
10605;SDS011;5350;42.698;23.148;2022-07-06T08:25:01;12.75;;;11.65;;
10605;SDS011;5350;42.698;23.148;2022-07-06T08:27:29;10.73;;;9.68;;
10605;SDS011;5350;42.698;23.148;2022-07-06T08:29:56;11.07;;;10.07;;
10605;SDS011;5350;42.698;23.148;2022-07-06T08:32:23;10.07;;;8.65;;
10605;SDS011;5350;42.698;23.148;2022-07-06T08:34:49;11.65;;;10.45;;
10605;SDS011;5350;42.698;23.148;2022-07-06T08:37:16;10.68;;;9.57;;
10605;SDS011;5350;42.698;23.148;2022-07-06T08:39:43;12.02;;;10.93;;
10605;SDS011;5350;42.698;23.148;2022-07-06T08:42:10;11.93;;;10.73;;
10605;SDS011;5350;42.698;23.148;2022-07-06T08:44:39;11.50;;;10.40;;
10605;SDS011;5350;42.698;23.148;2022-07-06T08:47:07;12.02;;;10.43;;
10605;SDS011;5350;42.698;23.148;2022-07-06T08:49:35;10.63;;;9.55;;
10605;SDS011;5350;42.698;23.148;2022-07-06T08:52:03;10.55;;;9.60;;
10605;SDS011;5350;42.698;23.148;2022-07-06T08:54:31;9.52;;;8.63;;
10605;SDS011;5350;42.698;23.148;2022-07-06T08:56:58;11.57;;;10.57;;
10605;SDS011;5350;42.698;23.148;2022-07-06T08:59:25;10.77;;;9.75;;
10605;SDS011;5350;42.698;23.148;2022-07-06T09:01:54;11.13;;;10.13;;
10605;SDS011;5350;42.698;23.148;2022-07-06T09:04:21;10.35;;;9.45;;
10605;SDS011;5350;42.698;23.148;2022-07-06T09:06:49;10.52;;;9.52;;
10605;SDS011;5350;42.698;23.148;2022-07-06T09:09:18;11.05;;;10.00;;
10605;SDS011;5350;42.698;23.148;2022-07-06T09:11:46;10.80;;;9.88;;
10605;SDS011;5350;42.698;23.148;2022-07-06T09:14:13;10.25;;;9.25;;
10605;SDS011;5350;42.698;23.148;2022-07-06T09:16:40;11.68;;;10.60;;
10605;SDS011;5350;42.698;23.148;2022-07-06T09:19:09;13.63;;;12.32;;
10605;SDS011;5350;42.698;23.148;2022-07-06T09:21:37;13.00;;;11.80;;
10605;SDS011;5350;42.698;23.148;2022-07-06T09:24:05;14.27;;;12.98;;
10605;SDS011;5350;42.698;23.148;2022-07-06T09:26:34;13.35;;;12.20;;
10605;SDS011;5350;42.698;23.148;2022-07-06T09:29:01;13.75;;;12.25;;
10605;SDS011;5350;42.698;23.148;2022-07-06T09:31:28;14.27;;;12.93;;
10605;SDS011;5350;42.698;23.148;2022-07-06T09:33:55;11.90;;;10.68;;
10605;SDS011;5350;42.698;23.148;2022-07-06T09:36:39;13.02;;;11.82;;
10605;SDS011;5350;42.698;23.148;2022-07-06T09:39:20;15.13;;;13.65;;
10605;SDS011;5350;42.698;23.148;2022-07-06T09:41:48;13.73;;;12.43;;
10605;SDS011;5350;42.698;23.148;2022-07-06T09:44:23;15.88;;;12.88;;
10605;SDS011;5350;42.698;23.148;2022-07-06T09:46:50;13.05;;;11.80;;
10605;SDS011;5350;42.698;23.148;2022-07-06T09:49:17;13.75;;;12.55;;
10605;SDS011;5350;42.698;23.148;2022-07-06T09:51:46;13.45;;;12.00;;
10605;SDS011;5350;42.698;23.148;2022-07-06T09:54:14;12.23;;;11.13;;
10605;SDS011;5350;42.698;23.148;2022-07-06T09:56:42;13.82;;;12.63;;
10605;SDS011;5350;42.698;23.148;2022-07-06T09:59:13;11.65;;;10.65;;
10605;SDS011;5350;42.698;23.148;2022-07-06T10:01:42;14.38;;;13.15;;
10605;SDS011;5350;42.698;23.148;2022-07-06T10:04:11;14.70;;;12.25;;
10605;SDS011;5350;42.698;23.148;2022-07-06T10:06:39;14.30;;;12.90;;
10605;SDS011;5350;42.698;23.148;2022-07-06T10:09:08;13.32;;;12.13;;
10605;SDS011;5350;42.698;23.148;2022-07-06T10:11:37;11.50;;;10.40;;
10605;SDS011;5350;42.698;23.148;2022-07-06T10:14:05;12.10;;;11.00;;
10605;SDS011;5350;42.698;23.148;2022-07-06T10:16:33;13.10;;;11.90;;
10605;SDS011;5350;42.698;23.148;2022-07-06T10:19:02;12.15;;;11.05;;
10605;SDS011;5350;42.698;23.148;2022-07-06T10:21:32;13.90;;;12.57;;
10605;SDS011;5350;42.698;23.148;2022-07-06T10:24:01;12.05;;;11.10;;
10605;SDS011;5350;42.698;23.148;2022-07-06T10:26:30;11.95;;;10.82;;
10605;SDS011;5350;42.698;23.148;2022-07-06T10:28:58;12.27;;;10.68;;
10605;SDS011;5350;42.698;23.148;2022-07-06T10:31:25;12.95;;;11.85;;
10605;SDS011;5350;42.698;23.148;2022-07-06T10:33:53;11.38;;;10.38;;
10605;SDS011;5350;42.698;23.148;2022-07-06T10:36:21;12.18;;;11.18;;
10605;SDS011;5350;42.698;23.148;2022-07-06T10:38:48;11.98;;;10.98;;
10605;SDS011;5350;42.698;23.148;2022-07-06T10:41:16;13.55;;;12.18;;
10605;SDS011;5350;42.698;23.148;2022-07-06T10:43:45;13.15;;;12.05;;
10605;SDS011;5350;42.698;23.148;2022-07-06T10:46:14;13.40;;;12.30;;
10605;SDS011;5350;42.698;23.148;2022-07-06T10:48:43;14.05;;;12.75;;
10605;SDS011;5350;42.698;23.148;2022-07-06T10:51:10;12.18;;;11.07;;
10605;SDS011;5350;42.698;23.148;2022-07-06T10:53:38;13.05;;;11.95;;
10605;SDS011;5350;42.698;23.148;2022-07-06T10:56:06;12.57;;;11.27;;
10605;SDS011;5350;42.698;23.148;2022-07-06T10:58:38;12.57;;;11.48;;
10605;SDS011;5350;42.698;23.148;2022-07-06T11:01:16;14.65;;;13.23;;
10605;SDS011;5350;42.698;23.148;2022-07-06T11:03:44;15.35;;;14.05;;
10605;SDS011;5350;42.698;23.148;2022-07-06T11:06:13;14.80;;;13.27;;
10605;SDS011;5350;42.698;23.148;2022-07-06T11:08:45;14.77;;;13.48;;
10605;SDS011;5350;42.698;23.148;2022-07-06T11:11:14;12.90;;;11.85;;
10605;SDS011;5350;42.698;23.148;2022-07-06T11:13:54;14.25;;;13.05;;
10605;SDS011;5350;42.698;23.148;2022-07-06T11:16:23;15.40;;;13.90;;
10605;SDS011;5350;42.698;23.148;2022-07-06T11:19:05;14.38;;;13.05;;
10605;SDS011;5350;42.698;23.148;2022-07-06T11:21:34;15.07;;;13.73;;
10605;SDS011;5350;42.698;23.148;2022-07-06T11:24:03;14.13;;;12.80;;
10605;SDS011;5350;42.698;23.148;2022-07-06T11:26:32;13.82;;;12.60;;
10605;SDS011;5350;42.698;23.148;2022-07-06T11:29:03;12.50;;;11.50;;
10605;SDS011;5350;42.698;23.148;2022-07-06T11:31:32;12.88;;;11.80;;
10605;SDS011;5350;42.698;23.148;2022-07-06T11:34:00;13.25;;;12.25;;
10605;SDS011;5350;42.698;23.148;2022-07-06T11:36:27;12.68;;;11.57;;
10605;SDS011;5350;42.698;23.148;2022-07-06T11:38:54;14.32;;;12.93;;
10605;SDS011;5350;42.698;23.148;2022-07-06T11:41:21;11.63;;;10.73;;
10605;SDS011;5350;42.698;23.148;2022-07-06T11:43:47;12.88;;;11.68;;
10605;SDS011;5350;42.698;23.148;2022-07-06T11:46:27;13.88;;;12.57;;
10605;SDS011;5350;42.698;23.148;2022-07-06T11:48:54;13.68;;;12.38;;
10605;SDS011;5350;42.698;23.148;2022-07-06T11:51:23;13.18;;;11.73;;
10605;SDS011;5350;42.698;23.148;2022-07-06T11:53:51;13.25;;;12.13;;
10605;SDS011;5350;42.698;23.148;2022-07-06T11:56:20;15.02;;;13.73;;
10605;SDS011;5350;42.698;23.148;2022-07-06T11:58:50;10.10;;;9.18;;
10605;SDS011;5350;42.698;23.148;2022-07-06T12:01:18;11.30;;;10.40;;
10605;SDS011;5350;42.698;23.148;2022-07-06T12:03:46;9.27;;;8.57;;
10605;SDS011;5350;42.698;23.148;2022-07-06T12:06:14;9.88;;;9.10;;
10605;SDS011;5350;42.698;23.148;2022-07-06T12:08:43;11.00;;;9.85;;
10605;SDS011;5350;42.698;23.148;2022-07-06T12:11:16;10.55;;;8.70;;
10605;SDS011;5350;42.698;23.148;2022-07-06T12:13:45;9.38;;;8.50;;
10605;SDS011;5350;42.698;23.148;2022-07-06T12:16:12;9.27;;;8.48;;
10605;SDS011;5350;42.698;23.148;2022-07-06T12:18:41;7.65;;;7.05;;
10605;SDS011;5350;42.698;23.148;2022-07-06T12:21:12;7.55;;;6.95;;
10605;SDS011;5350;42.698;23.148;2022-07-06T12:23:42;7.10;;;6.60;;
10605;SDS011;5350;42.698;23.148;2022-07-06T12:26:10;8.10;;;6.70;;
10605;SDS011;5350;42.698;23.148;2022-07-06T12:28:37;8.05;;;6.80;;
10605;SDS011;5350;42.698;23.148;2022-07-06T12:31:04;7.35;;;6.72;;
10605;SDS011;5350;42.698;23.148;2022-07-06T12:33:31;7.68;;;7.05;;
10605;SDS011;5350;42.698;23.148;2022-07-06T12:36:08;7.50;;;6.80;;
10605;SDS011;5350;42.698;23.148;2022-07-06T12:38:42;7.68;;;6.35;;
10605;SDS011;5350;42.698;23.148;2022-07-06T12:41:11;5.70;;;5.20;;
10605;SDS011;5350;42.698;23.148;2022-07-06T12:43:59;5.25;;;4.88;;
10605;SDS011;5350;42.698;23.148;2022-07-06T12:46:27;6.13;;;5.57;;
10605;SDS011;5350;42.698;23.148;2022-07-06T12:48:56;6.25;;;5.75;;
10605;SDS011;5350;42.698;23.148;2022-07-06T12:51:24;5.32;;;5.03;;
10605;SDS011;5350;42.698;23.148;2022-07-06T12:53:52;5.35;;;4.97;;
10605;SDS011;5350;42.698;23.148;2022-07-06T12:56:19;5.90;;;5.50;;
10605;SDS011;5350;42.698;23.148;2022-07-06T12:58:57;4.85;;;4.45;;
10605;SDS011;5350;42.698;23.148;2022-07-06T13:01:24;4.53;;;4.22;;
10605;SDS011;5350;42.698;23.148;2022-07-06T13:03:55;4.53;;;4.07;;
10605;SDS011;5350;42.698;23.148;2022-07-06T13:06:29;4.32;;;3.92;;
10605;SDS011;5350;42.698;23.148;2022-07-06T13:08:58;4.30;;;4.00;;
10605;SDS011;5350;42.698;23.148;2022-07-06T13:11:25;4.43;;;4.03;;
10605;SDS011;5350;42.698;23.148;2022-07-06T13:13:51;3.60;;;3.40;;
10605;SDS011;5350;42.698;23.148;2022-07-06T13:16:18;3.20;;;3.00;;
10605;SDS011;5350;42.698;23.148;2022-07-06T13:18:46;2.55;;;2.17;;
10605;SDS011;5350;42.698;23.148;2022-07-06T13:21:13;2.47;;;2.20;;
10605;SDS011;5350;42.698;23.148;2022-07-06T13:23:40;2.30;;;2.20;;
10605;SDS011;5350;42.698;23.148;2022-07-06T13:26:08;2.00;;;1.80;;
10605;SDS011;5350;42.698;23.148;2022-07-06T13:28:35;1.75;;;1.65;;
10605;SDS011;5350;42.698;23.148;2022-07-06T13:31:02;2.17;;;2.00;;
10605;SDS011;5350;42.698;23.148;2022-07-06T13:33:28;1.80;;;1.70;;
10605;SDS011;5350;42.698;23.148;2022-07-06T13:35:55;1.83;;;1.73;;
10605;SDS011;5350;42.698;23.148;2022-07-06T13:38:22;2.17;;;1.98;;
10605;SDS011;5350;42.698;23.148;2022-07-06T13:40:48;3.85;;;1.73;;
10605;SDS011;5350;42.698;23.148;2022-07-06T13:43:16;2.50;;;2.17;;
10605;SDS011;5350;42.698;23.148;2022-07-06T13:45:44;1.73;;;1.63;;
10605;SDS011;5350;42.698;23.148;2022-07-06T13:48:11;3.58;;;1.95;;
10605;SDS011;5350;42.698;23.148;2022-07-06T13:50:38;1.83;;;1.63;;
10605;SDS011;5350;42.698;23.148;2022-07-06T13:53:05;2.40;;;1.90;;
10605;SDS011;5350;42.698;23.148;2022-07-06T13:55:32;1.85;;;1.75;;
10605;SDS011;5350;42.698;23.148;2022-07-06T13:57:59;2.60;;;1.80;;
10605;SDS011;5350;42.698;23.148;2022-07-06T14:00:27;1.67;;;1.58;;
10605;SDS011;5350;42.698;23.148;2022-07-06T14:02:54;1.73;;;1.63;;
10605;SDS011;5350;42.698;23.148;2022-07-06T14:05:21;1.70;;;1.60;;
10605;SDS011;5350;42.698;23.148;2022-07-06T14:07:48;1.60;;;1.50;;
10605;SDS011;5350;42.698;23.148;2022-07-06T14:10:14;2.08;;;1.80;;
10605;SDS011;5350;42.698;23.148;2022-07-06T14:12:41;1.90;;;1.80;;
10605;SDS011;5350;42.698;23.148;2022-07-06T14:15:08;2.13;;;1.50;;
10605;SDS011;5350;42.698;23.148;2022-07-06T14:17:36;1.83;;;1.73;;
10605;SDS011;5350;42.698;23.148;2022-07-06T14:20:03;3.55;;;1.63;;
10605;SDS011;5350;42.698;23.148;2022-07-06T14:22:30;3.65;;;1.90;;
10605;SDS011;5350;42.698;23.148;2022-07-06T14:24:57;2.05;;;1.80;;
10605;SDS011;5350;42.698;23.148;2022-07-06T14:27:24;1.92;;;1.83;;
10605;SDS011;5350;42.698;23.148;2022-07-06T14:29:51;4.55;;;1.90;;
10605;SDS011;5350;42.698;23.148;2022-07-06T14:32:17;1.73;;;1.70;;
10605;SDS011;5350;42.698;23.148;2022-07-06T14:34:45;1.50;;;1.50;;
10605;SDS011;5350;42.698;23.148;2022-07-06T14:37:12;1.80;;;1.67;;
10605;SDS011;5350;42.698;23.148;2022-07-06T14:39:39;2.17;;;1.80;;